Time;durP1;ratioP1;P1;durP2;ratioP2;P2;SDS_P1;SDS_P2;PMS_P1;PMS_P2;Temp;Humidity;BMP_temperature;BMP_pressure;BME280_temperature;BME280_humidity;BME280_pressure;Samples;Min_cycle;Max_cycle;Signal;HPM_P1;HPM_P2
2021/03/25 00:00:40;;;;;;;31.20;17.77;;;7.80;99.90;;;;;;5035016;28;20469;-73
2021/03/25 00:03:09;;;;;;;29.83;17.80;;;7.90;99.90;;;;;;5036805;28;20482;-73
2021/03/25 00:05:35;;;;;;;29.23;16.77;;;7.90;99.90;;;;;;5036251;28;20515;-73
2021/03/25 00:08:03;;;;;;;31.23;17.57;;;7.90;99.90;;;;;;5034352;28;20436;-73
2021/03/25 00:10:33;;;;;;;25.87;17.40;;;7.90;99.90;;;;;;5036637;28;20466;-72
2021/03/25 00:12:59;;;;;;;29.00;17.53;;;7.90;99.90;;;;;;5035592;28;20958;-72
2021/03/25 00:15:26;;;;;;;29.60;17.63;;;8.00;99.90;;;;;;5036450;28;20484;-72
2021/03/25 00:17:52;;;;;;;27.67;17.37;;;8.00;99.90;;;;;;5034408;28;20517;-72
2021/03/25 00:20:19;;;;;;;26.57;18.00;;;8.00;99.90;;;;;;5036113;28;20433;-72
2021/03/25 00:22:45;;;;;;;25.47;17.33;;;7.80;99.90;;;;;;5034519;28;20531;-72
2021/03/25 00:25:18;;;;;;;24.10;17.37;;;7.80;99.90;;;;;;5036760;28;20407;-72
2021/03/25 00:27:43;;;;;;;29.17;17.50;;;7.80;99.90;;;;;;5036304;28;20416;-72
2021/03/25 00:30:11;;;;;;;30.37;19.50;;;7.70;99.90;;;;;;5034250;28;20444;-72
2021/03/25 00:32:37;;;;;;;31.70;18.50;;;7.70;99.90;;;;;;5035963;28;20184;-72
2021/03/25 00:35:04;;;;;;;29.83;16.40;;;7.70;99.90;;;;;;5035700;28;20903;-72
2021/03/25 00:37:30;;;;;;;28.77;17.80;;;7.70;99.90;;;;;;5035954;28;20178;-72
2021/03/25 00:39:55;;;;;;;27.70;16.83;;;7.70;99.90;;;;;;5033698;28;20848;-72
2021/03/25 00:42:21;;;;;;;25.67;16.27;;;7.60;99.90;;;;;;5036024;28;20177;-72
2021/03/25 00:44:47;;;;;;;28.80;16.80;;;7.70;99.90;;;;;;5036288;28;20175;-72
2021/03/25 00:47:13;;;;;;;32.27;18.17;;;7.70;99.90;;;;;;5036005;28;20268;-72
2021/03/25 00:49:38;;;;;;;28.57;16.67;;;7.70;99.90;;;;;;5033954;28;20235;-72
2021/03/25 00:52:04;;;;;;;29.57;19.50;;;7.70;99.90;;;;;;5034464;28;20748;-72
2021/03/25 00:54:30;;;;;;;28.93;16.77;;;7.80;99.90;;;;;;5035140;28;20187;-73
2021/03/25 00:56:55;;;;;;;25.50;18.57;;;7.80;99.90;;;;;;5035930;28;20871;-72
2021/03/25 00:59:21;;;;;;;27.90;16.90;;;7.80;99.90;;;;;;5033950;28;20172;-73
2021/03/25 01:01:47;;;;;;;27.00;17.80;;;7.80;99.90;;;;;;5032958;28;20234;-72
2021/03/25 01:04:13;;;;;;;29.50;17.03;;;7.70;99.90;;;;;;5036396;28;20183;-72
2021/03/25 01:06:39;;;;;;;25.10;17.13;;;7.60;99.90;;;;;;5034102;28;20552;-72
2021/03/25 01:09:19;;;;;;;25.93;17.20;;;7.60;99.90;;;;;;5035276;28;20428;-72
2021/03/25 01:11:45;;;;;;;24.37;16.70;;;7.70;99.90;;;;;;5033858;28;20665;-72
2021/03/25 01:14:11;;;;;;;29.10;17.30;;;7.70;99.90;;;;;;5035333;28;20437;-72
2021/03/25 01:16:39;;;;;;;34.77;17.30;;;7.60;99.90;;;;;;5035778;28;20279;-72
2021/03/25 01:19:11;;;;;;;29.77;17.97;;;7.50;99.90;;;;;;5035012;28;20435;-72
2021/03/25 01:21:38;;;;;;;27.10;17.20;;;7.50;99.90;;;;;;5032561;28;20449;-72
2021/03/25 01:24:04;;;;;;;27.10;16.03;;;7.50;99.90;;;;;;5015379;28;20494;-72
2021/03/25 01:26:30;;;;;;;23.93;15.93;;;7.50;99.90;;;;;;5015604;28;20468;-72
2021/03/25 01:28:59;;;;;;;26.57;17.47;;;7.50;99.90;;;;;;5013801;28;20423;-72
2021/03/25 01:31:26;;;;;;;27.40;17.93;;;7.50;99.90;;;;;;5015330;28;20189;-72
2021/03/25 01:33:51;;;;;;;24.53;16.10;;;7.50;99.90;;;;;;5016059;28;20426;-72
2021/03/25 01:36:17;;;;;;;29.03;19.00;;;7.50;99.90;;;;;;5015129;28;20462;-72
2021/03/25 01:38:42;;;;;;;29.47;17.50;;;7.50;99.90;;;;;;5015152;28;20175;-73
2021/03/25 01:41:08;;;;;;;24.80;16.80;;;7.50;99.90;;;;;;5013305;28;20223;-72
2021/03/25 01:43:41;;;;;;;24.77;18.37;;;7.50;99.90;;;;;;5016122;28;20187;-72
2021/03/25 01:46:38;;;;;;;23.73;16.37;;;7.60;99.90;;;;;;5015392;28;20193;-72
2021/03/25 01:49:05;;;;;;;25.97;16.87;;;7.50;99.90;;;;;;4992945;28;20443;-71
2021/03/25 01:51:39;;;;;;;31.47;17.60;;;7.40;99.90;;;;;;4993647;28;20435;-71
2021/03/25 01:54:26;;;;;;;29.20;17.43;;;7.30;99.90;;;;;;4994714;28;20505;-72
2021/03/25 01:57:00;;;;;;;27.00;17.47;;;7.30;99.90;;;;;;4977643;28;21117;-72
2021/03/25 01:59:56;;;;;;;29.90;18.50;;;7.30;99.90;;;;;;4993440;28;21048;-72
2021/03/25 02:02:35;;;;;;;28.47;17.87;;;7.20;99.90;;;;;;5011529;28;20503;-72
2021/03/25 02:05:16;;;;;;;28.60;16.60;;;7.20;99.90;;;;;;5010325;28;20934;-71
2021/03/25 02:08:01;;;;;;;29.70;16.87;;;7.20;99.90;;;;;;5001795;28;20399;-71
2021/03/25 02:10:35;;;;;;;28.80;17.90;;;7.10;99.90;;;;;;5017761;28;20415;-72
2021/03/25 02:13:41;;;;;;;23.77;17.27;;;7.10;99.90;;;;;;5016695;28;20399;-71
2021/03/25 02:16:13;;;;;;;32.50;16.80;;;7.00;99.90;;;;;;4992777;28;20542;-74
2021/03/25 02:19:12;;;;;;;26.97;16.70;;;7.10;99.90;;;;;;4992897;28;20415;-71
2021/03/25 02:22:11;;;;;;;33.37;18.67;;;6.90;99.90;;;;;;4993255;28;20427;-72
2021/03/25 02:24:58;;;;;;;26.63;17.37;;;6.80;99.90;;;;;;4996445;28;20403;-72
2021/03/25 02:27:44;;;;;;;27.53;16.20;;;6.70;99.90;;;;;;5015597;28;20433;-72
2021/03/25 02:30:32;;;;;;;26.43;16.70;;;6.80;99.90;;;;;;5014698;28;20766;-71
2021/03/25 02:33:00;;;;;;;30.97;17.30;;;6.80;99.90;;;;;;4993050;28;20411;-71
2021/03/25 02:35:58;;;;;;;30.03;17.33;;;6.90;99.90;;;;;;5014051;28;20427;-71
2021/03/25 02:38:26;;;;;;;28.23;17.30;;;6.90;99.90;;;;;;5009154;28;20448;-72
2021/03/25 02:40:57;;;;;;;26.53;16.53;;;6.80;99.90;;;;;;5014179;28;20955;-72
2021/03/25 02:43:31;;;;;;;26.83;16.97;;;6.80;99.90;;;;;;5014267;28;20473;-72
2021/03/25 02:46:03;;;;;;;26.67;17.80;;;6.90;99.90;;;;;;5014430;28;20457;-72
2021/03/25 02:48:33;;;;;;;28.70;17.50;;;6.90;99.90;;;;;;5014958;28;20415;-72
2021/03/25 02:51:11;;;;;;;28.50;17.90;;;7.00;99.90;;;;;;5013855;28;20737;-72
2021/03/25 02:53:39;;;;;;;33.10;19.40;;;7.00;99.90;;;;;;5013734;28;20430;-72
2021/03/25 02:56:20;;;;;;;30.17;17.63;;;7.10;99.90;;;;;;5014014;28;20447;-71
2021/03/25 02:58:50;;;;;;;31.30;17.33;;;7.10;99.90;;;;;;5014817;28;20473;-72
2021/03/25 03:01:18;;;;;;;26.03;17.03;;;7.10;99.90;;;;;;5013680;28;20526;-71
2021/03/25 03:03:49;;;;;;;26.53;18.07;;;7.10;99.90;;;;;;5013978;28;20440;-72
2021/03/25 03:06:25;;;;;;;30.00;18.47;;;7.10;99.90;;;;;;5013796;28;20423;-72
2021/03/25 03:08:52;;;;;;;28.03;18.17;;;7.20;99.90;;;;;;5014595;28;20414;-72
2021/03/25 03:11:33;;;;;;;29.10;17.87;;;7.20;99.90;;;;;;5013502;28;20529;-72
2021/03/25 03:14:03;;;;;;;30.87;18.50;;;7.20;99.90;;;;;;5014296;28;20408;-71
2021/03/25 03:16:53;;;;;;;29.10;18.07;;;7.20;99.90;;;;;;5016084;28;20552;-72
2021/03/25 03:19:25;;;;;;;30.33;18.83;;;7.20;99.90;;;;;;5007784;28;20450;-72
2021/03/25 03:21:56;;;;;;;25.80;17.97;;;7.20;99.90;;;;;;5018074;28;20509;-72
2021/03/25 03:24:23;;;;;;;29.33;18.60;;;7.20;99.90;;;;;;5017428;28;20460;-72
2021/03/25 03:26:53;;;;;;;27.07;17.40;;;7.20;99.90;;;;;;5017501;28;20393;-71
2021/03/25 03:29:21;;;;;;;29.20;18.00;;;7.10;99.90;;;;;;5017977;28;20938;-72
2021/03/25 03:31:55;;;;;;;27.83;17.30;;;7.20;99.90;;;;;;5017680;28;20929;-72
2021/03/25 03:34:27;;;;;;;27.83;18.00;;;7.20;99.90;;;;;;5017763;28;20395;-71
2021/03/25 03:36:57;;;;;;;25.37;17.03;;;7.20;99.90;;;;;;5017600;28;20434;-71
2021/03/25 03:39:25;;;;;;;29.07;18.17;;;7.20;99.90;;;;;;5015835;28;20432;-71
2021/03/25 03:41:54;;;;;;;28.07;17.60;;;7.20;99.90;;;;;;5018206;28;20810;-71
2021/03/25 03:44:27;;;;;;;28.67;17.57;;;7.20;99.90;;;;;;5017517;28;20807;-73
2021/03/25 03:46:57;;;;;;;31.97;19.80;;;7.20;99.90;;;;;;5016378;28;20415;-72
2021/03/25 03:49:55;;;;;;;23.43;17.60;;;7.20;99.90;;;;;;5017571;28;20508;-73
2021/03/25 03:52:27;;;;;;;26.10;16.97;;;7.20;99.90;;;;;;5013720;28;20478;-72
2021/03/25 03:54:54;;;;;;;34.30;19.70;;;7.10;99.90;;;;;;5017362;28;20406;-72
2021/03/25 03:57:44;;;;;;;32.20;18.53;;;7.10;99.90;;;;;;5017452;28;20452;-72
2021/03/25 04:00:29;;;;;;;31.73;18.80;;;7.10;99.90;;;;;;5018581;28;20931;-73
2021/03/25 04:03:28;;;;;;;26.73;17.07;;;7.00;99.90;;;;;;5017531;28;20441;-72
2021/03/25 04:06:06;;;;;;;27.27;17.73;;;6.90;99.90;;;;;;5016649;28;20426;-72
2021/03/25 04:08:54;;;;;;;40.37;20.13;;;6.90;99.90;;;;;;5016839;28;20406;-72
2021/03/25 04:11:27;;;;;;;27.37;16.60;;;6.90;99.90;;;;;;5030608;28;20446;-72
2021/03/25 04:13:58;;;;;;;30.97;17.73;;;6.80;99.90;;;;;;5036540;28;20406;-72
2021/03/25 04:16:25;;;;;;;26.93;18.83;;;6.80;99.90;;;;;;5035431;28;20456;-72
2021/03/25 04:19:00;;;;;;;31.73;18.30;;;6.70;99.90;;;;;;5036123;28;20410;-72
2021/03/25 04:21:37;;;;;;;27.60;17.73;;;6.70;99.90;;;;;;5034767;28;20992;-72
2021/03/25 04:24:16;;;;;;;23.33;16.47;;;6.70;99.90;;;;;;5036653;28;20407;-72
2021/03/25 04:26:55;;;;;;;26.90;17.17;;;6.70;99.90;;;;;;5036079;28;20459;-72
2021/03/25 04:29:39;;;;;;;26.90;17.17;;;6.70;99.90;;;;;;5036271;28;20468;-72
2021/03/25 04:32:05;;;;;;;34.50;18.77;;;6.70;99.90;;;;;;5034942;28;20417;-72
2021/03/25 04:34:31;;;;;;;34.03;19.20;;;6.60;99.90;;;;;;5036478;28;20919;-72
2021/03/25 04:36:58;;;;;;;32.90;20.50;;;6.70;99.90;;;;;;5036721;28;20448;-72
2021/03/25 04:39:24;;;;;;;35.83;17.53;;;6.70;99.90;;;;;;5036894;28;20406;-72
2021/03/25 04:41:51;;;;;;;31.20;18.53;;;6.70;99.90;;;;;;5034991;28;20504;-72
2021/03/25 04:44:48;;;;;;;34.20;19.83;;;6.80;99.90;;;;;;5036468;28;20401;-72
2021/03/25 04:47:26;;;;;;;32.80;19.83;;;6.90;99.90;;;;;;5036487;28;20203;-72
2021/03/25 04:49:56;;;;;;;27.43;18.53;;;6.90;99.90;;;;;;5035617;28;20910;-72
2021/03/25 04:52:26;;;;;;;31.27;16.83;;;6.90;99.90;;;;;;5034003;28;20414;-72
2021/03/25 04:54:52;;;;;;;28.70;18.67;;;6.90;99.90;;;;;;5035615;28;20414;-72
2021/03/25 04:57:27;;;;;;;29.57;19.10;;;6.70;99.90;;;;;;5034616;28;21024;-72
2021/03/25 05:00:07;;;;;;;29.13;18.93;;;6.70;99.90;;;;;;5035370;28;20442;-72
2021/03/25 05:02:34;;;;;;;32.00;17.83;;;6.70;99.90;;;;;;5035727;28;20434;-72
2021/03/25 05:05:01;;;;;;;27.47;17.50;;;6.80;99.90;;;;;;5034029;28;20432;-72
2021/03/25 05:07:35;;;;;;;26.40;18.27;;;6.80;99.90;;;;;;5035949;28;20409;-72
2021/03/25 05:10:02;;;;;;;25.60;16.73;;;6.90;99.90;;;;;;5035729;28;20445;-72
2021/03/25 05:12:29;;;;;;;31.60;18.97;;;6.90;99.90;;;;;;5035379;28;20406;-72
2021/03/25 05:15:10;;;;;;;32.43;18.37;;;6.80;99.90;;;;;;5033389;28;20799;-72
2021/03/25 05:17:46;;;;;;;29.37;18.13;;;6.80;99.90;;;;;;5017576;28;20472;-72
2021/03/25 05:20:39;;;;;;;31.00;18.90;;;6.80;99.90;;;;;;5014077;28;21008;-72
2021/03/25 05:23:19;;;;;;;32.83;18.43;;;6.80;99.90;;;;;;5010271;28;20894;-72
2021/03/25 05:25:53;;;;;;;31.97;19.23;;;6.80;99.90;;;;;;5016733;28;20450;-72
2021/03/25 05:28:43;;;;;;;30.67;20.23;;;6.80;99.90;;;;;;5003215;28;20487;-72
2021/03/25 05:31:12;;;;;;;31.77;21.03;;;6.90;99.90;;;;;;5004834;28;20813;-72
2021/03/25 05:33:39;;;;;;;35.97;21.60;;;6.90;99.90;;;;;;5007380;28;20499;-73
2021/03/25 05:36:10;;;;;;;39.80;24.73;;;6.90;99.90;;;;;;5027670;28;20475;-73
2021/03/25 05:38:37;;;;;;;36.60;22.73;;;6.90;99.90;;;;;;5014162;28;20420;-72
2021/03/25 05:41:06;;;;;;;35.73;21.13;;;6.80;99.90;;;;;;5016311;28;20604;-72
2021/03/25 05:43:53;;;;;;;38.00;19.93;;;6.70;99.90;;;;;;5018624;28;20492;-72
2021/03/25 05:46:51;;;;;;;36.73;20.20;;;6.80;99.90;;;;;;5026944;28;20511;-72
2021/03/25 05:50:08;;;;;;;34.63;21.50;;;6.90;99.90;;;;;;4994442;28;20438;-73
2021/03/25 05:52:53;;;;;;;31.77;20.23;;;7.10;99.90;;;;;;4955881;29;20447;-72
2021/03/25 05:55:30;;;;;;;32.10;20.93;;;7.20;99.90;;;;;;4939659;29;20982;-73
2021/03/25 05:58:37;;;;;;;33.77;20.10;;;7.20;99.90;;;;;;4953732;28;20456;-72
2021/03/25 06:01:14;;;;;;;42.27;20.07;;;7.30;99.90;;;;;;4950707;29;20445;-73
2021/03/25 06:03:56;;;;;;;34.77;20.87;;;7.40;99.90;;;;;;4916080;29;20773;-72
2021/03/25 06:06:35;;;;;;;37.90;22.07;;;7.50;99.90;;;;;;4939572;29;20468;-72
2021/03/25 06:09:13;;;;;;;27.63;19.20;;;7.50;99.90;;;;;;4939950;29;20476;-73
2021/03/25 06:11:53;;;;;;;31.00;19.57;;;7.60;99.90;;;;;;4935940;29;20466;-72
2021/03/25 06:14:48;;;;;;;30.93;19.80;;;7.60;99.90;;;;;;4952500;29;20787;-72
2021/03/25 06:17:18;;;;;;;34.80;20.23;;;7.70;99.90;;;;;;4937675;28;20470;-72
2021/03/25 06:20:10;;;;;;;33.63;19.80;;;7.70;99.90;;;;;;4947085;29;20429;-72
2021/03/25 06:22:42;;;;;;;32.13;18.57;;;7.70;99.90;;;;;;4935002;29;20421;-73
2021/03/25 06:25:16;;;;;;;34.00;18.60;;;7.80;99.90;;;;;;4934666;29;20794;-72
2021/03/25 06:27:54;;;;;;;29.13;19.40;;;7.80;99.90;;;;;;4939080;28;20836;-72
2021/03/25 06:30:28;;;;;;;36.80;19.50;;;8.00;99.90;;;;;;4932888;29;20538;-72
2021/03/25 06:33:18;;;;;;;32.83;18.70;;;8.10;99.90;;;;;;5020088;28;20424;-72
2021/03/25 06:35:50;;;;;;;32.10;20.33;;;8.20;99.90;;;;;;5033054;28;20494;-73
2021/03/25 06:38:21;;;;;;;34.10;20.67;;;8.20;99.90;;;;;;5013010;28;20423;-72
2021/03/25 06:41:21;;;;;;;30.70;20.27;;;8.30;99.90;;;;;;5013174;28;20490;-72
2021/03/25 06:44:00;;;;;;;34.27;20.20;;;8.30;99.90;;;;;;4999247;28;20415;-72
2021/03/25 06:46:42;;;;;;;31.17;18.97;;;8.30;99.90;;;;;;5014114;28;20412;-73
2021/03/25 06:49:19;;;;;;;35.70;22.00;;;8.40;99.90;;;;;;4992783;28;21087;-73
2021/03/25 06:51:44;;;;;;;30.27;20.73;;;8.40;99.90;;;;;;4994944;28;20435;-72
2021/03/25 06:54:21;;;;;;;40.70;23.97;;;8.40;99.90;;;;;;4995346;28;20422;-72
2021/03/25 06:56:50;;;;;;;32.97;21.20;;;8.50;99.90;;;;;;4994734;28;20196;-72
2021/03/25 06:59:22;;;;;;;34.87;21.50;;;8.60;99.90;;;;;;5012535;28;20460;-72
2021/03/25 07:01:50;;;;;;;34.20;19.97;;;8.60;99.90;;;;;;5013803;28;20433;-72
2021/03/25 07:04:18;;;;;;;34.63;21.67;;;8.70;99.90;;;;;;5013817;28;20757;-72
2021/03/25 07:06:45;;;;;;;30.43;20.70;;;8.70;99.90;;;;;;5026041;28;20791;-72
2021/03/25 07:09:11;;;;;;;32.80;21.70;;;8.80;99.90;;;;;;5021928;28;20419;-73
2021/03/25 07:11:38;;;;;;;35.40;21.17;;;8.80;99.90;;;;;;5013526;28;20476;-73
2021/03/25 07:14:08;;;;;;;31.90;21.00;;;8.80;99.90;;;;;;5012234;28;20637;-73
2021/03/25 07:16:39;;;;;;;32.97;22.07;;;8.80;99.90;;;;;;5013779;28;20552;-73
2021/03/25 07:19:18;;;;;;;31.10;20.47;;;8.80;99.90;;;;;;5013350;28;20485;-73
2021/03/25 07:21:47;;;;;;;36.10;21.13;;;8.80;99.90;;;;;;5014286;28;20430;-72
2021/03/25 07:24:37;;;;;;;37.07;22.80;;;8.90;99.90;;;;;;5013880;28;20399;-72
2021/03/25 07:27:12;;;;;;;32.00;21.27;;;8.90;99.90;;;;;;5018923;28;20507;-72
2021/03/25 07:29:41;;;;;;;33.37;20.27;;;9.00;99.90;;;;;;5032880;28;20945;-72
2021/03/25 07:32:07;;;;;;;34.93;21.30;;;9.00;99.90;;;;;;5032147;28;20416;-71
2021/03/25 07:34:38;;;;;;;32.90;21.47;;;9.10;99.90;;;;;;5034022;28;20413;-72
2021/03/25 07:37:06;;;;;;;35.60;22.53;;;9.20;99.90;;;;;;5031937;28;20464;-72
2021/03/25 07:39:37;;;;;;;31.10;21.50;;;9.30;99.90;;;;;;5033084;28;20496;-73
2021/03/25 07:42:04;;;;;;;34.63;22.10;;;9.40;99.90;;;;;;5032269;28;20513;-72
2021/03/25 07:44:42;;;;;;;35.70;22.77;;;9.50;99.90;;;;;;5033597;28;20409;-72
2021/03/25 07:47:32;;;;;;;30.60;21.60;;;9.50;99.90;;;;;;5032175;28;20413;-72
2021/03/25 07:50:19;;;;;;;34.80;21.90;;;9.60;99.90;;;;;;5031896;28;20433;-72
2021/03/25 07:52:45;;;;;;;34.13;22.07;;;9.70;99.90;;;;;;5033319;28;20484;-73
2021/03/25 07:55:33;;;;;;;36.33;21.50;;;9.90;99.90;;;;;;5033034;28;20441;-73
2021/03/25 07:57:59;;;;;;;33.43;21.73;;;10.00;99.90;;;;;;5032637;28;20204;-72
2021/03/25 08:00:35;;;;;;;35.40;22.40;;;10.00;99.90;;;;;;5031620;28;20437;-72
2021/03/25 08:03:19;;;;;;;37.20;24.63;;;10.10;99.90;;;;;;5036425;28;20911;-72
2021/03/25 08:05:47;;;;;;;36.93;22.00;;;10.20;99.90;;;;;;5036404;28;20416;-74
2021/03/25 08:08:35;;;;;;;32.43;21.40;;;10.20;99.90;;;;;;5036470;28;20416;-72
2021/03/25 08:11:09;;;;;;;39.20;23.17;;;10.20;99.90;;;;;;5019081;28;20434;-73
2021/03/25 08:13:36;;;;;;;33.80;20.57;;;10.40;99.90;;;;;;5016685;28;20866;-73
2021/03/25 08:16:08;;;;;;;32.60;23.33;;;10.40;99.90;;;;;;5016443;28;20500;-73
2021/03/25 08:18:40;;;;;;;32.67;24.57;;;10.50;99.90;;;;;;5015938;28;20442;-73
2021/03/25 08:21:27;;;;;;;35.60;24.53;;;10.60;99.90;;;;;;5017437;28;20458;-73
2021/03/25 08:24:22;;;;;;;38.60;23.90;;;10.70;99.90;;;;;;5016875;28;20489;-73
2021/03/25 08:26:57;;;;;;;35.23;23.70;;;10.70;99.90;;;;;;5015872;28;20414;-72
2021/03/25 08:29:40;;;;;;;39.27;25.63;;;10.70;99.90;;;;;;5016545;28;20747;-73
2021/03/25 08:32:05;;;;;;;40.93;28.60;;;10.70;99.90;;;;;;5017485;28;20827;-71
2021/03/25 08:34:54;;;;;;;43.20;29.80;;;10.80;99.90;;;;;;5016271;28;20487;-73
2021/03/25 08:37:30;;;;;;;40.33;29.00;;;10.80;99.90;;;;;;5015959;28;20294;-72
2021/03/25 08:39:56;;;;;;;42.97;30.90;;;10.80;99.90;;;;;;5015912;28;20561;-73
2021/03/25 08:42:21;;;;;;;41.80;29.53;;;10.80;99.90;;;;;;5017310;28;20927;-73
2021/03/25 08:45:06;;;;;;;48.93;31.10;;;11.00;99.90;;;;;;5016040;28;20178;-73
2021/03/25 08:47:39;;;;;;;46.23;30.80;;;11.10;99.90;;;;;;5016662;28;20176;-72
2021/03/25 08:50:33;;;;;;;46.23;30.37;;;11.20;99.90;;;;;;5016033;28;20464;-72
2021/03/25 08:53:22;;;;;;;43.33;31.87;;;11.00;99.90;;;;;;5015637;28;20441;-72
2021/03/25 08:55:51;;;;;;;47.50;30.97;;;11.00;99.90;;;;;;5035506;28;20812;-73
2021/03/25 08:58:20;;;;;;;52.20;34.77;;;11.10;99.90;;;;;;5036226;28;20402;-72
2021/03/25 09:00:50;;;;;;;51.07;32.83;;;11.30;99.90;;;;;;5037514;28;20425;-71
2021/03/25 09:03:32;;;;;;;45.37;31.40;;;11.50;99.90;;;;;;5035124;28;20474;-72
2021/03/25 09:06:14;;;;;;;45.40;32.37;;;11.60;99.90;;;;;;5039265;28;20861;-71
2021/03/25 09:08:41;;;;;;;51.57;33.30;;;11.70;99.90;;;;;;5051809;28;20405;-73
2021/03/25 09:11:12;;;;;;;46.97;31.60;;;11.80;99.90;;;;;;5048378;28;20433;-72
2021/03/25 09:13:45;;;;;;;46.70;32.93;;;12.00;99.90;;;;;;5035027;28;20470;-72
2021/03/25 09:16:24;;;;;;;47.97;33.43;;;12.00;99.70;;;;;;5032727;28;20541;-73
2021/03/25 09:18:51;;;;;;;46.20;32.30;;;12.10;99.70;;;;;;5034291;28;20394;-72
2021/03/25 09:21:26;;;;;;;52.37;35.80;;;12.10;99.60;;;;;;5022221;28;20497;-72
2021/03/25 09:24:03;;;;;;;48.43;35.80;;;12.20;99.40;;;;;;5015180;28;20472;-73
2021/03/25 09:26:29;;;;;;;52.73;36.90;;;12.20;99.20;;;;;;5014253;28;20425;-72
2021/03/25 09:29:07;;;;;;;49.37;34.70;;;12.30;99.20;;;;;;5014519;28;20422;-73
2021/03/25 09:31:55;;;;;;;45.77;33.80;;;12.40;99.00;;;;;;5014666;28;20258;-73
2021/03/25 09:34:23;;;;;;;51.57;35.80;;;12.40;99.00;;;;;;5001728;28;20998;-73
2021/03/25 09:37:16;;;;;;;46.97;36.80;;;12.50;98.90;;;;;;5027802;28;20481;-73
2021/03/25 09:39:41;;;;;;;44.67;34.80;;;12.50;98.80;;;;;;5033467;28;20433;-72
2021/03/25 09:42:16;;;;;;;46.07;34.70;;;12.50;98.70;;;;;;5033290;28;20712;-72
2021/03/25 09:44:43;;;;;;;50.37;36.00;;;12.50;98.70;;;;;;5014306;28;20175;-73
2021/03/25 09:47:17;;;;;;;48.83;34.77;;;12.50;98.70;;;;;;5025277;28;20513;-72
2021/03/25 09:49:53;;;;;;;42.80;34.27;;;12.60;98.70;;;;;;5033779;28;20405;-72
2021/03/25 09:52:37;;;;;;;48.13;34.20;;;12.70;98.70;;;;;;5032654;28;21033;-73
2021/03/25 09:55:03;;;;;;;53.90;36.27;;;12.70;98.50;;;;;;5034509;28;20409;-72
2021/03/25 09:57:28;;;;;;;51.97;36.33;;;12.70;98.50;;;;;;5032378;28;20556;-73
2021/03/25 10:00:33;;;;;;;49.57;35.97;;;12.80;98.50;;;;;;5026627;28;20188;-72
2021/03/25 10:03:01;;;;;;;68.37;38.30;;;12.90;98.40;;;;;;5008663;28;20179;-72
2021/03/25 10:05:36;;;;;;;50.50;36.47;;;12.90;98.20;;;;;;5016437;28;20532;-72
2021/03/25 10:08:14;;;;;;;55.17;37.57;;;12.70;98.20;;;;;;5024719;28;20420;-72
2021/03/25 10:11:01;;;;;;;53.80;37.90;;;12.50;98.40;;;;;;5012536;28;20431;-72
2021/03/25 10:13:34;;;;;;;62.57;39.50;;;12.50;98.60;;;;;;5014813;28;20437;-72
2021/03/25 10:16:03;;;;;;;54.13;37.67;;;12.50;98.70;;;;;;5013504;28;20799;-72
2021/03/25 10:18:31;;;;;;;54.30;37.27;;;12.60;98.60;;;;;;5014338;28;20509;-72
2021/03/25 10:20:59;;;;;;;57.47;39.37;;;12.50;98.60;;;;;;5013300;28;20421;-72
2021/03/25 10:23:24;;;;;;;55.00;39.03;;;12.60;98.80;;;;;;5013619;28;20410;-73
2021/03/25 10:25:53;;;;;;;59.20;40.70;;;12.60;98.90;;;;;;5012253;28;20445;-72
2021/03/25 10:28:24;;;;;;;64.07;38.90;;;12.70;99.00;;;;;;5014708;28;20206;-73
2021/03/25 10:30:59;;;;;;;65.97;41.37;;;12.80;98.80;;;;;;4994406;28;20516;-73
2021/03/25 10:33:27;;;;;;;51.80;37.80;;;12.90;98.60;;;;;;4995506;28;20811;-72
2021/03/25 10:36:00;;;;;;;63.27;39.87;;;13.10;98.60;;;;;;5013379;28;20453;-73
2021/03/25 10:38:40;;;;;;;55.43;38.43;;;13.10;98.50;;;;;;5013545;28;20399;-72
2021/03/25 10:41:05;;;;;;;61.87;42.13;;;13.30;98.30;;;;;;5022354;28;20460;-72
2021/03/25 10:43:34;;;;;;;58.73;40.73;;;13.10;98.20;;;;;;5033050;28;20402;-71
2021/03/25 10:46:05;;;;;;;60.60;40.90;;;12.80;98.80;;;;;;5032533;28;20175;-74
2021/03/25 10:48:35;;;;;;;63.70;42.97;;;12.70;99.30;;;;;;5031968;28;20409;-73
2021/03/25 10:51:15;;;;;;;59.77;38.90;;;12.80;99.20;;;;;;5031103;28;20504;-72
2021/03/25 10:53:49;;;;;;;63.87;41.70;;;12.90;98.90;;;;;;5033054;28;20413;-71
2021/03/25 10:56:29;;;;;;;59.77;41.40;;;13.10;98.60;;;;;;5032775;28;20487;-72
2021/03/25 10:59:26;;;;;;;57.77;39.40;;;13.30;98.60;;;;;;5032511;28;20477;-72
2021/03/25 11:01:55;;;;;;;59.60;38.50;;;13.30;98.30;;;;;;5027605;28;20477;-71
2021/03/25 11:04:31;;;;;;;56.60;40.80;;;13.20;97.90;;;;;;5015940;28;20904;-72
2021/03/25 11:07:28;;;;;;;58.13;39.40;;;13.00;97.90;;;;;;5027336;28;20432;-72
2021/03/25 11:10:00;;;;;;;56.40;38.67;;;12.80;98.10;;;;;;5032842;28;20433;-72
2021/03/25 11:12:30;;;;;;;56.67;39.43;;;12.80;98.40;;;;;;5019261;28;20814;-73
2021/03/25 11:14:58;;;;;;;56.50;40.13;;;12.90;98.40;;;;;;5012917;28;20461;-73
2021/03/25 11:17:30;;;;;;;63.33;37.00;;;12.90;98.40;;;;;;5012885;28;20450;-73
2021/03/25 11:19:59;;;;;;;67.23;41.50;;;12.80;98.60;;;;;;5013559;28;21017;-73
2021/03/25 11:22:26;;;;;;;62.73;39.27;;;12.70;98.80;;;;;;5013820;28;20419;-71
2021/03/25 11:24:52;;;;;;;59.20;39.60;;;12.80;98.50;;;;;;5013883;28;20476;-72
2021/03/25 11:27:23;;;;;;;77.40;42.90;;;12.60;98.40;;;;;;5013342;28;20481;-71
2021/03/25 11:30:14;;;;;;;61.17;39.73;;;12.60;98.70;;;;;;5013329;28;20414;-72
2021/03/25 11:32:44;;;;;;;60.60;40.27;;;12.70;98.80;;;;;;5014498;28;20439;-72
2021/03/25 11:35:40;;;;;;;59.30;38.67;;;12.80;98.60;;;;;;5014790;28;20914;-72
2021/03/25 11:38:40;;;;;;;50.17;35.40;;;13.00;98.50;;;;;;5017865;28;20434;-72
2021/03/25 11:41:17;;;;;;;49.70;35.17;;;13.10;98.40;;;;;;4975950;28;20471;-72
2021/03/25 11:43:52;;;;;;;47.20;33.30;;;13.10;98.20;;;;;;4958771;28;20424;-72
2021/03/25 11:46:49;;;;;;;52.70;32.53;;;13.10;98.10;;;;;;4976383;28;20420;-72
2021/03/25 11:49:21;;;;;;;45.73;32.80;;;13.30;98.10;;;;;;4975086;28;20467;-71
2021/03/25 11:51:59;;;;;;;44.47;34.37;;;13.40;98.10;;;;;;4976396;28;20964;-72
2021/03/25 11:54:27;;;;;;;42.90;33.17;;;13.50;97.90;;;;;;4968167;28;20425;-72
2021/03/25 11:57:00;;;;;;;49.47;36.47;;;13.40;98.20;;;;;;4963206;28;20483;-72
2021/03/25 11:59:38;;;;;;;51.57;37.33;;;13.30;98.20;;;;;;4964635;28;20510;-72
2021/03/25 12:02:17;;;;;;;45.50;34.60;;;13.20;98.50;;;;;;4964780;28;20425;-72
2021/03/25 12:04:43;;;;;;;44.00;31.43;;;13.20;98.60;;;;;;4964330;28;20500;-73
2021/03/25 12:07:11;;;;;;;38.17;29.83;;;13.30;97.60;;;;;;4964604;28;20491;-73
2021/03/25 12:09:56;;;;;;;41.63;29.67;;;13.20;97.60;;;;;;4964768;28;20440;-72
2021/03/25 12:12:21;;;;;;;40.30;29.60;;;13.30;97.80;;;;;;4964760;28;20871;-73
2021/03/25 12:14:47;;;;;;;38.00;27.13;;;13.40;97.80;;;;;;4964327;28;20436;-72
2021/03/25 12:17:12;;;;;;;35.97;27.40;;;13.50;97.50;;;;;;5000115;28;20231;-72
2021/03/25 12:19:38;;;;;;;36.33;25.80;;;13.50;97.40;;;;;;5014573;28;20183;-73
2021/03/25 12:22:04;;;;;;;34.67;25.47;;;13.60;97.30;;;;;;5014913;28;20194;-72
2021/03/25 12:24:29;;;;;;;35.00;25.50;;;13.60;97.00;;;;;;5014720;28;20191;-72
2021/03/25 12:26:55;;;;;;;40.40;24.83;;;13.60;97.00;;;;;;5014898;28;20261;-72
2021/03/25 12:29:20;;;;;;;37.23;24.87;;;13.50;97.10;;;;;;5014775;28;20266;-72
2021/03/25 12:31:46;;;;;;;35.37;25.20;;;13.50;97.30;;;;;;5014351;28;20293;-72
2021/03/25 12:34:13;;;;;;;32.73;24.87;;;13.50;97.30;;;;;;5013012;28;20187;-72
2021/03/25 12:36:39;;;;;;;31.47;24.30;;;13.50;97.10;;;;;;5015958;28;20722;-73
2021/03/25 12:39:08;;;;;;;34.73;25.03;;;13.40;97.40;;;;;;5015104;28;20442;-72
2021/03/25 12:41:42;;;;;;;31.10;24.83;;;13.30;97.80;;;;;;5016469;28;20466;-71
2021/03/25 12:44:09;;;;;;;38.67;26.73;;;13.40;97.90;;;;;;5033655;28;20442;-73
2021/03/25 12:46:35;;;;;;;34.43;26.33;;;13.40;98.00;;;;;;5023676;28;20847;-72
2021/03/25 12:49:00;;;;;;;36.23;26.60;;;13.40;97.90;;;;;;5017700;28;20439;-72
2021/03/25 12:51:26;;;;;;;33.00;24.97;;;13.40;98.00;;;;;;5033353;28;20276;-73
2021/03/25 12:53:52;;;;;;;34.60;25.43;;;13.40;97.90;;;;;;5032973;28;20203;-72
2021/03/25 12:56:31;;;;;;;37.07;24.87;;;13.40;97.60;;;;;;5021388;28;20494;-72
2021/03/25 12:58:59;;;;;;;36.37;27.17;;;13.40;98.00;;;;;;5014529;28;20683;-72
2021/03/25 13:01:27;;;;;;;39.97;26.10;;;13.40;98.20;;;;;;5014766;28;20453;-72
2021/03/25 13:03:53;;;;;;;35.70;27.90;;;13.50;98.20;;;;;;5017764;28;20541;-72
2021/03/25 13:06:19;;;;;;;33.70;24.57;;;13.50;98.10;;;;;;5013100;28;20432;-72
2021/03/25 13:08:45;;;;;;;32.77;22.93;;;13.60;97.30;;;;;;5014333;28;20437;-72